createdAt,value
2022-11-17T00:00:01.649Z,98661.88
2022-11-17T00:00:23.879Z,98652.69
2022-11-17T00:00:45.683Z,98655.25
2022-11-17T00:01:12.813Z,98650.00
2022-11-17T00:01:40.133Z,98650.50
2022-11-17T00:02:02.974Z,98647.75
2022-11-17T00:02:27.118Z,98651.22
2022-11-17T00:02:49.628Z,98648.31
2022-11-17T00:03:15.508Z,98644.41
2022-11-17T00:03:39.154Z,98641.06
2022-11-17T00:04:02.284Z,98639.25
2022-11-17T00:04:25.432Z,98630.75
2022-11-17T00:04:47.064Z,98644.22
2022-11-17T00:05:12.188Z,98636.22
2022-11-17T00:05:35.149Z,98639.19
2022-11-17T00:05:57.388Z,98637.38
2022-11-17T00:06:22.732Z,98639.25
2022-11-17T00:06:46.138Z,98626.44
2022-11-17T00:07:08.254Z,98633.81
2022-11-17T00:07:31.017Z,98632.09
2022-11-17T00:07:55.228Z,98620.47
2022-11-17T00:08:18.474Z,98624.47
2022-11-17T00:08:40.143Z,98626.31
2022-11-17T00:09:02.296Z,98630.19
2022-11-17T00:09:24.624Z,98629.94
2022-11-17T00:09:48.133Z,98624.38
2022-11-17T00:10:11.324Z,98631.28
2022-11-17T00:10:34.100Z,98622.66
2022-11-17T00:11:00.715Z,98612.38
2022-11-17T00:11:23.792Z,98631.16
2022-11-17T00:12:04.319Z,98634.09
2022-11-17T00:12:44.330Z,98618.78
2022-11-17T00:13:37.253Z,98634.44
2022-11-17T00:14:17.418Z,98626.56
2022-11-17T00:14:40.973Z,98627.03
2022-11-17T00:15:02.678Z,98626.41
2022-11-17T00:15:24.594Z,98624.25
2022-11-17T00:15:47.916Z,98619.63
2022-11-17T00:16:12.573Z,98614.28
2022-11-17T00:16:34.513Z,98616.84
2022-11-17T00:16:56.470Z,98620.47
2022-11-17T00:17:19.462Z,98616.94
2022-11-17T00:17:41.530Z,98601.47
2022-11-17T00:18:24.529Z,98611.03
2022-11-17T00:19:04.553Z,98609.09
2022-11-17T00:19:47.654Z,98603.28
2022-11-17T00:20:44.060Z,98605.66
2022-11-17T00:21:22.190Z,98594.03
2022-11-17T00:21:43.905Z,98601.81
2022-11-17T00:22:06.638Z,98605.44
2022-11-17T00:22:30.585Z,98592.47
2022-11-17T00:22:52.497Z,98595.50
2022-11-17T00:23:14.423Z,98583.00
2022-11-17T00:23:46.997Z,98604.47
2022-11-17T00:24:10.434Z,98587.28
2022-11-17T00:24:33.999Z,98591.50
2022-11-17T00:24:55.645Z,98574.91
2022-11-17T00:25:17.291Z,98586.66
2022-11-17T00:25:40.743Z,98581.19
2022-11-17T00:26:02.564Z,98579.28
2022-11-17T00:26:26.313Z,98584.34
2022-11-17T00:27:01.653Z,98578.16
2022-11-17T00:27:25.113Z,98571.50
2022-11-17T00:27:46.910Z,98585.09
2022-11-17T00:28:12.104Z,98564.81
2022-11-17T00:28:34.662Z,98572.25
2022-11-17T00:28:58.594Z,98563.50
2022-11-17T00:29:21.307Z,98575.88
2022-11-17T00:29:43.124Z,98545.53
2022-11-17T00:30:06.269Z,98548.13
2022-11-17T00:30:46.622Z,98555.66
2022-11-17T00:31:29.729Z,98568.50
2022-11-17T00:32:12.328Z,98552.50
2022-11-17T00:32:53.697Z,98559.53
2022-11-17T00:33:35.633Z,98570.91
2022-11-17T00:34:06.888Z,98561.97
2022-11-17T00:34:29.601Z,98567.75
2022-11-17T00:34:51.229Z,98566.16
2022-11-17T00:35:12.912Z,98571.84
2022-11-17T00:35:34.565Z,98579.28
2022-11-17T00:35:59.256Z,98579.03
2022-11-17T00:36:26.182Z,98557.03
2022-11-17T00:36:49.753Z,98567.16
2022-11-17T00:37:13.150Z,98575.69
2022-11-17T00:37:39.225Z,98551.31
2022-11-17T00:38:16.159Z,98574.25
2022-11-17T00:38:37.879Z,98581.91
2022-11-17T00:38:59.523Z,98565.66
2022-11-17T00:39:24.251Z,98572.28
2022-11-17T00:39:45.963Z,98571.00
2022-11-17T00:40:08.412Z,98564.59
2022-11-17T00:40:30.187Z,98567.16
2022-11-17T00:40:52.831Z,98552.59
2022-11-17T00:41:14.540Z,98568.63
2022-11-17T00:41:36.353Z,98565.03
2022-11-17T00:41:58.378Z,98563.09
2022-11-17T00:42:21.204Z,98569.88
2022-11-17T00:42:42.836Z,98553.78
2022-11-17T00:43:04.532Z,98556.66
2022-11-17T00:43:27.575Z,98558.78
2022-11-17T00:43:49.271Z,98558.00
2022-11-17T00:44:13.040Z,98556.13
2022-11-17T00:44:34.840Z,98541.94
2022-11-17T00:44:58.237Z,98544.13
2022-11-17T00:45:19.888Z,98543.66
2022-11-17T00:45:41.968Z,98536.13
2022-11-17T00:46:07.016Z,98554.78
2022-11-17T00:46:28.976Z,98537.88
2022-11-17T00:46:50.740Z,98546.75
2022-11-17T00:47:13.391Z,98536.53
2022-11-17T00:47:36.073Z,98539.84
2022-11-17T00:48:00.074Z,98545.63
2022-11-17T00:48:22.063Z,98545.88
2022-11-17T00:48:43.775Z,98518.75
2022-11-17T00:49:06.406Z,98537.19
2022-11-17T00:49:29.137Z,98538.50
2022-11-17T00:49:50.806Z,98545.88
2022-11-17T00:50:12.463Z,98539.22
2022-11-17T00:50:34.292Z,98538.75
2022-11-17T00:50:55.995Z,98539.09
2022-11-17T00:51:18.203Z,98541.66
2022-11-17T00:51:40.990Z,98537.50
2022-11-17T00:52:02.643Z,98527.47
2022-11-17T00:52:24.349Z,98537.72
2022-11-17T00:52:46.585Z,98535.06
2022-11-17T00:53:08.645Z,98532.78
2022-11-17T00:53:31.434Z,98538.34
2022-11-17T00:53:53.333Z,98528.19
2022-11-17T00:54:16.531Z,98521.91
2022-11-17T00:54:39.129Z,98530.75
2022-11-17T00:55:01.050Z,98522.31
2022-11-17T00:55:23.196Z,98538.06
2022-11-17T00:55:45.136Z,98529.19
2022-11-17T00:56:07.276Z,98530.75
2022-11-17T00:56:29.969Z,98539.28
2022-11-17T00:56:51.721Z,98533.94
2022-11-17T00:57:13.432Z,98529.34
2022-11-17T00:57:35.138Z,98532.84
2022-11-17T00:57:57.787Z,98522.50
2022-11-17T00:58:19.587Z,98542.97
2022-11-17T00:58:42.837Z,98525.78
2022-11-17T00:59:04.542Z,98529.19
2022-11-17T00:59:27.235Z,98530.31
2022-11-17T00:59:49.308Z,98535.13
2022-11-17T01:00:11.927Z,98526.53
2022-11-17T01:00:33.553Z,98526.53
2022-11-17T01:00:55.640Z,98510.53
2022-11-17T01:01:18.915Z,98523.88
2022-11-17T01:01:40.859Z,98522.66
2022-11-17T01:02:02.713Z,98524.84
2022-11-17T01:02:24.325Z,98524.75
2022-11-17T01:02:46.955Z,98520.13
2022-11-17T01:03:08.661Z,98520.13
2022-11-17T01:03:31.015Z,98525.09
2022-11-17T01:04:02.762Z,98519.66
2022-11-17T01:04:25.775Z,98519.88
2022-11-17T01:04:47.680Z,98528.00
2022-11-17T01:05:09.473Z,98519.66
2022-11-17T01:05:33.137Z,98512.00
2022-11-17T01:05:55.172Z,98514.31
2022-11-17T01:06:19.885Z,98515.03
2022-11-17T01:06:43.396Z,98518.19
2022-11-17T01:07:05.313Z,98516.03
2022-11-17T01:07:27.195Z,98514.56
2022-11-17T01:07:48.906Z,98517.00
2022-11-17T01:08:11.801Z,98514.19
2022-11-17T01:08:35.034Z,98513.09
2022-11-17T01:08:58.432Z,98518.06
2022-11-17T01:09:22.653Z,98513.00
2022-11-17T01:09:45.120Z,98508.50
2022-11-17T01:10:07.959Z,98521.59
2022-11-17T01:10:29.971Z,98515.03
2022-11-17T01:10:52.556Z,98507.03
2022-11-17T01:11:17.013Z,98501.59
2022-11-17T01:11:39.034Z,98510.81
2022-11-17T01:12:01.909Z,98504.38
2022-11-17T01:12:23.547Z,98507.78
2022-11-17T01:12:45.356Z,98505.09
2022-11-17T01:13:07.438Z,98504.13
2022-11-17T01:13:30.658Z,98503.88
2022-11-17T01:13:56.379Z,98504.63
2022-11-17T01:14:20.784Z,98494.28
2022-11-17T01:14:42.447Z,98488.56
2022-11-17T01:15:04.444Z,98500.34
2022-11-17T01:15:27.112Z,98503.72
2022-11-17T01:15:48.762Z,98506.38
2022-11-17T01:16:12.360Z,98498.28
2022-11-17T01:16:34.226Z,98512.34
2022-11-17T01:16:57.303Z,98509.28
2022-11-17T01:17:19.006Z,98500.09
2022-11-17T01:17:40.628Z,98506.66
2022-11-17T01:18:02.321Z,98504.19
2022-11-17T01:18:25.098Z,98509.41
2022-11-17T01:18:48.939Z,98498.16
2022-11-17T01:19:12.081Z,98512.34
2022-11-17T01:19:34.958Z,98495.13
2022-11-17T01:19:56.771Z,98491.28
2022-11-17T01:20:18.996Z,98500.03
2022-11-17T01:20:40.648Z,98491.88
2022-11-17T01:21:08.078Z,98505.34
2022-11-17T01:21:32.079Z,98497.09
2022-11-17T01:21:54.022Z,98499.16
2022-11-17T01:22:15.784Z,98505.22
2022-11-17T01:22:37.479Z,98496.63
2022-11-17T01:22:59.199Z,98499.34
2022-11-17T01:23:21.844Z,98498.50
2022-11-17T01:23:45.179Z,98496.63
2022-11-17T01:24:07.482Z,98500.22
2022-11-17T01:24:30.296Z,98500.31
2022-11-17T01:24:52.237Z,98492.31
2022-11-17T01:25:14.091Z,98488.09
2022-11-17T01:25:35.773Z,98498.03
2022-11-17T01:26:01.564Z,98483.03
2022-11-17T01:26:26.267Z,98492.19
2022-11-17T01:26:49.584Z,98483.59
2022-11-17T01:27:11.265Z,98493.31
2022-11-17T01:27:33.020Z,98487.00
2022-11-17T01:28:40.312Z,98481.16
2022-11-17T01:29:04.996Z,98470.63
2022-11-17T01:29:27.008Z,98480.91
2022-11-17T01:29:48.694Z,98484.81
2022-11-17T01:30:13.704Z,98484.44
2022-11-17T01:30:36.824Z,98486.13
2022-11-17T01:31:03.402Z,98477.75
2022-11-17T01:31:27.210Z,98483.47
2022-11-17T01:31:53.412Z,98458.03
2022-11-17T01:32:16.210Z,98478.66
2022-11-17T01:32:37.928Z,98458.19
2022-11-17T01:33:01.147Z,98479.38
2022-11-17T01:33:23.374Z,98479.75
2022-11-17T01:33:47.971Z,98481.22
2022-11-17T01:34:11.864Z,98466.53
2022-11-17T01:34:33.843Z,98479.13
2022-11-17T01:34:55.964Z,98479.63
2022-11-17T01:35:20.400Z,98474.53
2022-11-17T01:35:42.147Z,98481.06
2022-11-17T01:36:06.547Z,98473.31
2022-11-17T01:36:54.815Z,98454.41
2022-11-17T01:37:19.833Z,98468.34
2022-11-17T01:37:44.281Z,98474.28
2022-11-17T01:38:06.310Z,98463.88
2022-11-17T01:38:28.835Z,98467.50
2022-11-17T01:38:52.198Z,98444.97
2022-11-17T01:39:13.935Z,98436.13
2022-11-17T01:39:35.718Z,98451.75
2022-11-17T01:39:57.428Z,98459.75
2022-11-17T01:40:20.562Z,98469.44
2022-11-17T01:40:42.368Z,98458.78
2022-11-17T01:41:06.253Z,98455.88
2022-11-17T01:41:28.671Z,98461.09
2022-11-17T01:41:51.912Z,98460.25
2022-11-17T01:42:15.775Z,98442.81
2022-11-17T01:42:37.480Z,98460.72
2022-11-17T01:42:59.200Z,98459.13
2022-11-17T01:43:37.392Z,98440.59
2022-11-17T01:44:42.088Z,98438.19
2022-11-17T01:45:18.879Z,98446.66
2022-11-17T01:45:40.726Z,98424.25
2022-11-17T01:46:03.413Z,98432.84
2022-11-17T01:46:31.997Z,98451.53
2022-11-17T01:46:58.219Z,98453.81
2022-11-17T01:47:26.421Z,98434.56
2022-11-17T01:47:53.374Z,98455.53
2022-11-17T01:48:15.407Z,98456.59
2022-11-17T01:48:37.165Z,98457.06
2022-11-17T01:49:04.845Z,98446.28
2022-11-17T01:49:29.107Z,98450.63
2022-11-17T01:49:56.162Z,98450.75
2022-11-17T01:50:26.066Z,98444.00
2022-11-17T01:50:49.387Z,98439.75
2022-11-17T01:51:13.164Z,98424.13
2022-11-17T01:51:39.551Z,98433.84
2022-11-17T01:52:05.573Z,98429.47
2022-11-17T01:52:30.471Z,98416.25
2022-11-17T01:52:55.313Z,98430.44
2022-11-17T01:53:21.081Z,98441.59
2022-11-17T01:53:45.127Z,98442.78
2022-11-17T01:54:09.660Z,98429.22
2022-11-17T01:54:34.485Z,98440.47
2022-11-17T01:54:57.820Z,98412.22
2022-11-17T01:55:23.040Z,98434.19
2022-11-17T01:55:48.727Z,98436.25
2022-11-17T01:56:15.763Z,98421.13
2022-11-17T01:56:44.344Z,98425.09
2022-11-17T01:57:10.038Z,98423.41
2022-11-17T01:57:36.712Z,98433.22
2022-11-17T01:58:02.769Z,98427.16
2022-11-17T01:58:28.264Z,98419.28
2022-11-17T01:58:55.824Z,98425.09
2022-11-17T01:59:25.613Z,98409.84
2022-11-17T01:59:51.102Z,98417.25
2022-11-17T02:00:16.927Z,98415.16
2022-11-17T02:00:38.728Z,98418.53
2022-11-17T02:01:00.353Z,98415.16
2022-11-17T02:01:22.103Z,98424.25
2022-11-17T02:01:57.611Z,98415.88
2022-11-17T02:02:20.777Z,98423.19
2022-11-17T02:02:45.325Z,98418.47
2022-11-17T02:03:07.440Z,98403.81
2022-11-17T02:03:34.739Z,98421.13
2022-11-17T02:03:56.878Z,98417.88
2022-11-17T02:04:18.583Z,98411.06
2022-11-17T02:04:44.389Z,98406.09
2022-11-17T02:05:15.406Z,98421.72
2022-11-17T02:05:46.862Z,98419.53
2022-11-17T02:06:11.977Z,98417.00
2022-11-17T02:06:36.255Z,98418.47
2022-11-17T02:07:05.355Z,98410.84
2022-11-17T02:07:32.373Z,98415.91
2022-11-17T02:07:58.026Z,98411.44
2022-11-17T02:08:22.346Z,98414.84
2022-11-17T02:08:46.983Z,98418.34
2022-11-17T02:09:10.221Z,98417.00
2022-11-17T02:09:35.115Z,98412.16
2022-11-17T02:09:57.391Z,98422.06
2022-11-17T02:10:19.346Z,98415.91
2022-11-17T02:10:50.201Z,98421.47
2022-11-17T02:11:17.203Z,98422.19
2022-11-17T02:11:39.744Z,98422.91
2022-11-17T02:12:03.291Z,98415.44
2022-11-17T02:12:27.760Z,98416.50
2022-11-17T02:12:49.983Z,98414.44
2022-11-17T02:13:12.017Z,98417.09
2022-11-17T02:13:38.334Z,98405.34
2022-11-17T02:14:00.427Z,98420.72
2022-11-17T02:14:22.139Z,98427.66
2022-11-17T02:14:44.880Z,98417.22
2022-11-17T02:15:07.500Z,98420.25
2022-11-17T02:15:31.841Z,98404.63
2022-11-17T02:15:55.189Z,98417.22
2022-11-17T02:16:17.650Z,98412.13
2022-11-17T02:16:39.315Z,98412.97
2022-11-17T02:17:11.441Z,98415.16
2022-11-17T02:17:38.544Z,98403.28
2022-11-17T02:18:02.009Z,98411.66
2022-11-17T02:18:26.252Z,98408.63
2022-11-17T02:18:49.117Z,98410.44
2022-11-17T02:19:14.612Z,98412.13
2022-11-17T02:19:39.646Z,98408.41
2022-11-17T02:20:08.351Z,98415.28
2022-11-17T02:20:50.559Z,98408.88
2022-11-17T02:21:33.111Z,98408.41
2022-11-17T02:22:21.581Z,98402.69
2022-11-17T02:23:05.231Z,98403.78
2022-11-17T02:24:09.059Z,98394.22
2022-11-17T02:24:59.759Z,98392.41
2022-11-17T02:25:38.094Z,98401.59
2022-11-17T02:26:32.366Z,98398.59
2022-11-17T02:27:22.355Z,98399.06
2022-11-17T02:28:02.172Z,98398.22
2022-11-17T02:28:28.812Z,98395.19
2022-11-17T02:28:59.784Z,98367.31
2022-11-17T02:29:28.238Z,98393.25
2022-11-17T02:29:58.391Z,98392.03
2022-11-17T02:30:22.459Z,98399.03
2022-11-17T02:30:55.223Z,98394.81
2022-11-17T02:31:22.736Z,98388.63
2022-11-17T02:31:54.023Z,98398.34
2022-11-17T02:32:23.904Z,98389.88
2022-11-17T02:32:57.039Z,98392.03
2022-11-17T02:33:31.317Z,98381.75
2022-11-17T02:33:56.784Z,98386.34
2022-11-17T02:34:29.137Z,98384.03
2022-11-17T02:35:00.396Z,98385.50
2022-11-17T02:35:26.547Z,98377.84
2022-11-17T02:35:54.591Z,98382.00
2022-11-17T02:36:25.183Z,98385.41
2022-11-17T02:36:55.700Z,98385.72
2022-11-17T02:37:25.083Z,98388.53
2022-11-17T02:37:55.404Z,98381.63
2022-11-17T02:38:28.831Z,98383.91
2022-11-17T02:38:55.893Z,98384.41
2022-11-17T02:39:22.852Z,98386.59
2022-11-17T02:39:54.987Z,98389.38
2022-11-17T02:40:22.267Z,98381.22
2022-11-17T02:40:48.259Z,98377.53
2022-11-17T02:41:18.027Z,98375.72
2022-11-17T02:41:49.018Z,98375.78
2022-11-17T02:42:16.372Z,98379.06
2022-11-17T02:43:01.171Z,98376.28
2022-11-17T02:43:48.869Z,98372.28
2022-11-17T02:44:16.639Z,98369.13
2022-11-17T02:44:45.604Z,98364.06
2022-11-17T02:45:13.253Z,98368.91
2022-11-17T02:45:40.488Z,98363.31
2022-11-17T02:46:08.853Z,98377.28
2022-11-17T02:46:38.795Z,98376.41
2022-11-17T02:47:11.624Z,98368.53
2022-11-17T02:47:39.622Z,98362.84
2022-11-17T02:48:07.247Z,98369.72
2022-11-17T02:48:33.211Z,98358.75
2022-11-17T02:49:00.993Z,98366.47
2022-11-17T02:49:29.020Z,98363.06
2022-11-17T02:49:56.904Z,98355.81
2022-11-17T02:50:27.908Z,98363.44
2022-11-17T02:50:53.602Z,98360.03
2022-11-17T02:51:20.658Z,98351.22
2022-11-17T02:51:44.596Z,98364.56
2022-11-17T02:52:08.908Z,98358.50
2022-11-17T02:52:34.369Z,98353.41
2022-11-17T02:52:58.801Z,98342.09
2022-11-17T02:53:25.183Z,98355.22
2022-11-17T02:53:48.841Z,98353.03
2022-11-17T02:54:14.863Z,98350.09
2022-11-17T02:54:36.575Z,98356.91
2022-11-17T02:55:01.438Z,98350.75
2022-11-17T02:55:23.376Z,98348.09
2022-11-17T02:55:52.699Z,98348.66
2022-11-17T02:56:19.684Z,98349.75
2022-11-17T02:56:42.444Z,98349.75
2022-11-17T02:57:07.106Z,98349.75
2022-11-17T02:57:31.168Z,98354.84
2022-11-17T02:57:54.611Z,98348.81
2022-11-17T02:58:17.762Z,98345.53
2022-11-17T02:58:41.673Z,98346.50
2022-11-17T02:59:06.090Z,98321.31
2022-11-17T02:59:32.416Z,98350.25
2022-11-17T02:59:56.281Z,98337.91
2022-11-17T03:00:20.426Z,98351.38
2022-11-17T03:00:55.039Z,98334.28
2022-11-17T03:01:43.009Z,98340.34
2022-11-17T03:02:24.548Z,98345.03
2022-11-17T03:03:08.771Z,98341.25
2022-11-17T03:03:44.830Z,98347.34
2022-11-17T03:04:38.708Z,98343.22
2022-11-17T03:05:14.131Z,98346.38
2022-11-17T03:05:44.182Z,98337.91
2022-11-17T03:06:17.420Z,98330.47
2022-11-17T03:06:57.121Z,98344.06
2022-11-17T03:07:44.454Z,98334.25
2022-11-17T03:08:24.318Z,98333.66
2022-11-17T03:08:55.320Z,98332.91
2022-11-17T03:09:28.594Z,98336.69
2022-11-17T03:10:04.015Z,98335.91
2022-11-17T03:10:38.688Z,98326.75
2022-11-17T03:11:03.617Z,98338.00
2022-11-17T03:11:35.361Z,98336.69
2022-11-17T03:12:06.692Z,98337.03
2022-11-17T03:12:35.286Z,98333.41
2022-11-17T03:13:06.132Z,98329.53
2022-11-17T03:13:40.309Z,98330.38
2022-11-17T03:14:08.501Z,98334.63
2022-11-17T03:14:41.224Z,98333.53
2022-11-17T03:15:13.471Z,98334.00
2022-11-17T03:15:45.313Z,98323.13
2022-11-17T03:16:16.245Z,98320.94
2022-11-17T03:16:48.947Z,98338.41
2022-11-17T03:17:17.054Z,98334.78
2022-11-17T03:17:51.752Z,98320.72
2022-11-17T03:18:22.199Z,98342.25
2022-11-17T03:18:55.993Z,98338.75
2022-11-17T03:19:21.218Z,98328.47
2022-11-17T03:19:47.641Z,98338.53
2022-11-17T03:20:16.171Z,98327.22
2022-11-17T03:20:47.610Z,98328.34
2022-11-17T03:21:18.453Z,98333.88
2022-11-17T03:21:44.862Z,98324.44
2022-11-17T03:22:12.874Z,98329.78
2022-11-17T03:22:43.220Z,98327.22
2022-11-17T03:23:11.248Z,98319.72
2022-11-17T03:23:41.796Z,98322.13
2022-11-17T03:24:11.557Z,98308.56
2022-11-17T03:24:40.840Z,98314.25
2022-11-17T03:25:06.275Z,98329.63
2022-11-17T03:25:32.186Z,98324.28
2022-11-17T03:25:58.402Z,98319.22
2022-11-17T03:26:25.804Z,98332.81
2022-11-17T03:26:53.188Z,98323.72
2022-11-17T03:27:20.637Z,98319.28
2022-11-17T03:27:47.578Z,98318.66
2022-11-17T03:28:15.208Z,98323.28
2022-11-17T03:28:40.296Z,98316.97
2022-11-17T03:29:05.378Z,98313.47
2022-11-17T03:29:32.488Z,98318.78
2022-11-17T03:29:59.976Z,98321.47
2022-11-17T03:30:25.529Z,98317.59
2022-11-17T03:30:49.385Z,98308.53
2022-11-17T03:31:13.183Z,98317.69
2022-11-17T03:31:36.956Z,98315.50
2022-11-17T03:32:03.219Z,98291.09
2022-11-17T03:32:28.698Z,98313.69
2022-11-17T03:32:57.799Z,98317.59
2022-11-17T03:33:23.023Z,98308.50
2022-11-17T03:33:50.587Z,98312.00
2022-11-17T03:34:15.620Z,98300.41
2022-11-17T03:34:43.068Z,98305.50
2022-11-17T03:35:10.156Z,98301.38
2022-11-17T03:35:35.534Z,98308.03
2022-11-17T03:36:02.912Z,98301.59
2022-11-17T03:36:30.112Z,98304.03
2022-11-17T03:36:58.274Z,98284.91
2022-11-17T03:37:23.239Z,98288.78
2022-11-17T03:37:49.923Z,98290.81
2022-11-17T03:38:14.494Z,98307.03
2022-11-17T03:38:42.009Z,98276.69
2022-11-17T03:39:08.854Z,98285.09
2022-11-17T03:39:32.909Z,98286.91
2022-11-17T03:40:00.911Z,98286.72
2022-11-17T03:40:28.811Z,98285.53
2022-11-17T03:40:55.699Z,98274.25
2022-11-17T03:41:20.845Z,98296.97
2022-11-17T03:41:48.827Z,98276.09
2022-11-17T03:42:16.387Z,98290.97
2022-11-17T03:42:41.210Z,98292.53
2022-11-17T03:43:07.868Z,98291.94
2022-11-17T03:43:33.060Z,98286.25
2022-11-17T03:44:00.541Z,98288.31
2022-11-17T03:44:26.179Z,98293.03
2022-11-17T03:44:51.061Z,98289.03
2022-11-17T03:45:21.165Z,98284.69
2022-11-17T03:45:47.078Z,98296.78
2022-11-17T03:46:12.989Z,98277.19
2022-11-17T03:46:37.054Z,98278.97
2022-11-17T03:47:04.688Z,98294.84
2022-11-17T03:47:29.617Z,98284.88
2022-11-17T03:47:57.644Z,98287.81
2022-11-17T03:48:24.879Z,98287.16
2022-11-17T03:48:52.072Z,98278.69
2022-11-17T03:49:30.528Z,98291.84
2022-11-17T03:50:04.020Z,98295.72
2022-11-17T03:50:34.499Z,98288.94
2022-11-17T03:51:04.527Z,98299.97
2022-11-17T03:51:31.006Z,98283.00
2022-11-17T03:51:53.025Z,98279.25
2022-11-17T03:52:15.995Z,98280.22
2022-11-17T03:52:38.327Z,98280.09
2022-11-17T03:53:01.315Z,98290.41
2022-11-17T03:53:24.281Z,98283.59
2022-11-17T03:53:48.959Z,98289.44
2022-11-17T03:54:11.818Z,98271.91
2022-11-17T03:54:34.355Z,98276.59
2022-11-17T03:54:56.761Z,98275.63
2022-11-17T03:55:18.803Z,98278.31
2022-11-17T03:55:47.456Z,98275.72
2022-11-17T03:56:23.816Z,98285.56
2022-11-17T03:56:54.147Z,98279.25
2022-11-17T03:57:19.923Z,98276.56
2022-11-17T03:57:49.727Z,98283.25
2022-11-17T03:58:18.400Z,98263.66
2022-11-17T03:58:49.789Z,98273.56
2022-11-17T03:59:17.578Z,98260.63
2022-11-17T03:59:46.767Z,98264.16
2022-11-17T04:00:10.988Z,98258.91
2022-11-17T04:00:38.704Z,98258.16
2022-11-17T04:01:03.327Z,98251.28
2022-11-17T04:01:28.387Z,98246.78
2022-11-17T04:01:51.664Z,98256.47
2022-11-17T04:02:15.156Z,98262.41
2022-11-17T04:02:40.148Z,98255.38
2022-11-17T04:03:01.881Z,98258.13
2022-11-17T04:03:23.665Z,98262.06
2022-11-17T04:03:46.288Z,98256.50
2022-11-17T04:04:14.034Z,98255.75
2022-11-17T04:04:50.581Z,98252.13
2022-11-17T04:05:15.481Z,98252.88
2022-11-17T04:05:38.176Z,98255.56
2022-11-17T04:06:00.431Z,98254.94
2022-11-17T04:06:22.146Z,98250.03
2022-11-17T04:06:44.786Z,98254.84
2022-11-17T04:07:06.626Z,98216.25
2022-11-17T04:07:28.304Z,98243.31
2022-11-17T04:07:50.208Z,98247.78
2022-11-17T04:08:12.857Z,98244.75
2022-11-17T04:08:34.671Z,98249.56
2022-11-17T04:08:56.273Z,98254.56
2022-11-17T04:09:23.978Z,98248.72
2022-11-17T04:09:46.113Z,98204.75
2022-11-17T04:10:11.411Z,98247.63
2022-11-17T04:10:53.010Z,98252.72
2022-11-17T04:11:34.167Z,98239.97
2022-11-17T04:12:14.383Z,98240.06
2022-11-17T04:12:55.479Z,98249.13
2022-11-17T04:13:36.103Z,98241.28
2022-11-17T04:14:29.271Z,98247.88
2022-11-17T04:15:10.752Z,98232.50
2022-11-17T04:15:48.735Z,98243.13
2022-11-17T04:16:11.702Z,98244.00
2022-11-17T04:16:34.609Z,98236.16
2022-11-17T04:16:56.295Z,98228.81
2022-11-17T04:17:18.574Z,98234.47
2022-11-17T04:17:41.395Z,98239.69
2022-11-17T04:18:04.563Z,98240.81
2022-11-17T04:18:26.958Z,98240.94
2022-11-17T04:18:54.428Z,98236.22
2022-11-17T04:19:20.134Z,98237.53
2022-11-17T04:19:41.775Z,98240.31
2022-11-17T04:20:05.197Z,98252.63
2022-11-17T04:20:35.745Z,98242.84
2022-11-17T04:20:57.783Z,98254.31
2022-11-17T04:21:21.030Z,98243.31
2022-11-17T04:21:43.050Z,98246.81
2022-11-17T04:22:05.808Z,98229.91
2022-11-17T04:22:27.696Z,98226.91
2022-11-17T04:23:07.257Z,98239.13
2022-11-17T04:23:29.977Z,98216.16
2022-11-17T04:23:51.913Z,98254.25
2022-11-17T04:24:14.700Z,98248.53
2022-11-17T04:24:36.429Z,98257.50
2022-11-17T04:24:58.532Z,98240.44
2022-11-17T04:25:35.238Z,98247.78
2022-11-17T04:26:21.335Z,98241.78
2022-11-17T04:27:02.123Z,98244.06
2022-11-17T04:27:42.555Z,98245.56
2022-11-17T04:28:22.976Z,98247.50
2022-11-17T04:28:47.807Z,98252.59
2022-11-17T04:29:14.255Z,98230.91
2022-11-17T04:29:35.990Z,98224.66
2022-11-17T04:29:57.776Z,98256.34
2022-11-17T04:30:20.488Z,98241.34
2022-11-17T04:30:42.201Z,98251.28
2022-11-17T04:31:05.441Z,98237.84
2022-11-17T04:31:28.679Z,98245.47
2022-11-17T04:31:51.856Z,98245.25
2022-11-17T04:32:14.043Z,98249.59
2022-11-17T04:32:37.168Z,98240.88
2022-11-17T04:32:59.511Z,98242.31
2022-11-17T04:33:21.146Z,98257.31
2022-11-17T04:33:45.494Z,98237.34
2022-11-17T04:34:07.820Z,98248.88
2022-11-17T04:34:29.423Z,98244.22
2022-11-17T04:34:53.386Z,98238.03
2022-11-17T04:35:15.441Z,98243.91
2022-11-17T04:35:37.322Z,98243.53
2022-11-17T04:36:00.303Z,98240.38
2022-11-17T04:36:25.724Z,98247.28
2022-11-17T04:36:47.364Z,98238.09
2022-11-17T04:37:17.137Z,98244.00
2022-11-17T04:37:38.761Z,98242.03
2022-11-17T04:38:01.395Z,98240.72
2022-11-17T04:38:23.283Z,98238.19
2022-11-17T04:38:46.466Z,98238.56
2022-11-17T04:39:08.961Z,98230.22
2022-11-17T04:39:31.527Z,98230.69
2022-11-17T04:39:53.462Z,98227.34
2022-11-17T04:40:15.315Z,98226.81
2022-11-17T04:40:56.958Z,98223.94
2022-11-17T04:41:39.077Z,98228.03
2022-11-17T04:42:03.305Z,98222.25
2022-11-17T04:42:24.918Z,98219.56
2022-11-17T04:42:46.527Z,98211.13
2022-11-17T04:43:08.196Z,98227.94
2022-11-17T04:43:29.820Z,98227.31
2022-11-17T04:43:52.942Z,98219.31
2022-11-17T04:44:17.930Z,98219.31
2022-11-17T04:44:40.856Z,98218.34
2022-11-17T04:45:02.782Z,98222.97
2022-11-17T04:45:24.434Z,98225.97
2022-11-17T04:45:46.163Z,98224.66
2022-11-17T04:46:07.805Z,98218.00
2022-11-17T04:46:31.426Z,98222.94
2022-11-17T04:46:53.583Z,98214.47
2022-11-17T04:47:15.494Z,98234.28
2022-11-17T04:47:37.317Z,98229.22
2022-11-17T04:47:59.934Z,98221.88
2022-11-17T04:48:21.579Z,98234.06
2022-11-17T04:48:43.506Z,98225.72
2022-11-17T04:49:06.293Z,98221.97
2022-11-17T04:49:29.224Z,98228.00
2022-11-17T04:49:50.815Z,98236.25
2022-11-17T04:50:12.455Z,98239.97
2022-11-17T04:50:34.188Z,98227.88
2022-11-17T04:50:56.371Z,98241.56
2022-11-17T04:51:19.006Z,98234.28
2022-11-17T04:51:41.530Z,98236.88
2022-11-17T04:52:03.619Z,98236.66
2022-11-17T04:52:29.756Z,98226.13
2022-11-17T04:52:51.750Z,98224.28
2022-11-17T04:53:13.408Z,98222.72
2022-11-17T04:53:35.496Z,98228.25
2022-11-17T04:53:57.951Z,98234.19
2022-11-17T04:54:24.050Z,98227.78
2022-11-17T04:54:45.684Z,98222.44
2022-11-17T04:55:08.144Z,98235.03
2022-11-17T04:55:31.933Z,98231.13
2022-11-17T04:55:53.555Z,98219.03
2022-11-17T04:56:17.524Z,98222.53
2022-11-17T04:56:39.565Z,98242.50
2022-11-17T04:57:01.467Z,98218.75
2022-11-17T04:57:24.064Z,98229.78
2022-11-17T04:57:45.679Z,98226.38
2022-11-17T04:58:11.027Z,98225.66
2022-11-17T04:58:33.320Z,98221.91
2022-11-17T04:58:55.859Z,98225.63
2022-11-17T04:59:19.987Z,98225.53
2022-11-17T04:59:41.692Z,98234.50
2022-11-17T05:00:03.988Z,98219.88
2022-11-17T05:00:25.826Z,98232.72
2022-11-17T05:00:47.642Z,98212.50
2022-11-17T05:01:18.076Z,98221.13
2022-11-17T05:01:40.168Z,98210.59
2022-11-17T05:02:05.829Z,98215.91
2022-11-17T05:02:28.894Z,98198.88
2022-11-17T05:02:50.582Z,98212.50
2022-11-17T05:03:14.563Z,98211.09
2022-11-17T05:03:36.771Z,98206.38
2022-11-17T05:04:02.198Z,98216.16
2022-11-17T05:04:42.422Z,98230.44
2022-11-17T05:05:05.737Z,98205.72
2022-11-17T05:05:27.470Z,98219.50
2022-11-17T05:05:51.061Z,98201.25
2022-11-17T05:06:16.181Z,98206.22
2022-11-17T05:06:41.613Z,98196.03
2022-11-17T05:07:04.415Z,98205.63
2022-11-17T05:07:26.134Z,98203.53
2022-11-17T05:07:47.914Z,98207.75